Time;durP1;ratioP1;P1;durP2;ratioP2;P2;SDS_P1;SDS_P2;PMS_P1;PMS_P2;Temp;Humidity;BMP_temperature;BMP_pressure;BME280_temperature;BME280_humidity;BME280_pressure;Samples;Min_cycle;Max_cycle;Signal;HPM_P1;HPM_P2
2023/07/20 05:26:21;;;;;;;13.27;5.18;;;;;;;-144.51;100.00;69251.94;5263186;24;20043;-75
2023/07/20 05:30:14;;;;;;;17.95;6.07;;;;;;;-144.51;100.00;69251.94;4790114;29;20042;-76
2023/07/20 05:34:07;;;;;;;7.18;4.90;;;;;;;-144.51;100.00;69251.94;4804955;29;20051;-75
2023/07/20 05:38:00;;;;;;;7.00;4.05;;;;;;;-144.51;100.00;69251.94;4780199;29;20048;-76
2023/07/20 05:41:53;;;;;;;10.07;4.18;;;;;;;-144.51;100.00;69251.94;4790045;29;20040;-76
2023/07/20 05:45:46;;;;;;;9.57;3.67;;;;;;;-144.51;100.00;69251.94;4781030;29;20038;-77
2023/07/20 05:49:38;;;;;;;10.75;4.05;;;;;;;-144.51;100.00;69251.94;4790760;29;20520;-76
2023/07/20 05:53:31;;;;;;;7.43;4.38;;;;;;;-144.51;100.00;69251.94;4775477;29;20051;-77
2023/07/20 05:57:24;;;;;;;11.18;4.10;;;;;;;-144.51;100.00;69251.94;4771602;30;20040;-76
2023/07/20 06:01:18;;;;;;;7.85;4.72;;;;;;;-144.51;100.00;69251.94;4768110;30;20050;-76
2023/07/20 06:05:12;;;;;;;9.70;5.40;;;;;;;-144.51;100.00;69251.94;4773408;30;20517;-75
2023/07/20 06:09:09;;;;;;;9.43;6.25;;;;;;;-144.51;100.00;69251.94;4773642;30;20055;-76
2023/07/20 06:13:02;;;;;;;12.20;5.57;;;;;;;-144.51;100.00;69251.94;4777022;29;20521;-77
2023/07/20 06:16:55;;;;;;;8.32;5.80;;;;;;;-144.51;100.00;69251.94;4785329;29;20047;-75
2023/07/20 06:20:50;;;;;;;9.57;5.03;;;;;;;-144.51;100.00;69251.94;4778642;29;20043;-76
2023/07/20 06:24:44;;;;;;;11.30;5.70;;;;;;;-144.51;100.00;69251.94;4778330;30;20051;-77
2023/07/20 06:28:36;;;;;;;13.38;5.30;;;;;;;-144.51;100.00;69251.94;4796642;29;20044;-76
2023/07/20 06:32:29;;;;;;;13.15;5.25;;;;;;;-144.51;100.00;69251.94;4782229;29;20056;-77
2023/07/20 06:36:22;;;;;;;12.73;4.88;;;;;;;-144.51;100.00;69251.94;4782213;29;20039;-76
2023/07/20 06:40:15;;;;;;;16.58;4.28;;;;;;;-144.51;100.00;69251.94;4786526;29;20051;-76
2023/07/20 06:44:08;;;;;;;9.93;4.70;;;;;;;-144.51;100.00;69251.94;4771069;30;20044;-78
2023/07/20 06:48:01;;;;;;;9.88;4.88;;;;;;;-144.51;100.00;69251.94;4782252;30;20047;-75
2023/07/20 06:51:54;;;;;;;12.43;5.60;;;;;;;-144.51;100.00;69251.94;4770041;30;20048;-79
2023/07/20 06:55:44;;;;;;;10.60;5.47;;;;;;;-144.51;100.00;69251.94;4777656;30;20044;-76
2023/07/20 06:59:37;;;;;;;11.02;6.72;;;;;;;-144.51;100.00;69251.94;4784593;29;20048;-76
2023/07/20 07:03:30;;;;;;;11.18;6.68;;;;;;;-144.51;100.00;69251.94;4774879;30;20039;-75
2023/07/20 07:07:23;;;;;;;11.75;6.70;;;;;;;-144.51;100.00;69251.94;4764306;30;20048;-77
2023/07/20 07:11:16;;;;;;;13.40;6.75;;;;;;;-144.51;100.00;69251.94;4757891;30;20048;-75
2023/07/20 07:15:07;;;;;;;9.18;6.05;;;;;;;-144.51;100.00;69251.94;4773675;29;20501;-76
2023/07/20 07:18:59;;;;;;;11.20;6.88;;;;;;;-144.51;100.00;69251.94;4799715;29;20055;-76
2023/07/20 07:22:52;;;;;;;12.07;4.53;;;;;;;-144.51;100.00;69251.94;4799744;29;20405;-77
2023/07/20 07:26:45;;;;;;;26.80;6.43;;;;;;;-144.51;100.00;69251.94;4767305;30;20052;-78
2023/07/20 07:30:38;;;;;;;9.10;5.18;;;;;;;-144.51;100.00;69251.94;4767960;30;20043;-75
2023/07/20 07:34:31;;;;;;;9.52;5.97;;;;;;;-144.51;100.00;69251.94;4778550;30;20047;-75
2023/07/20 07:38:24;;;;;;;9.98;6.00;;;;;;;-144.51;100.00;69251.94;4781192;30;20039;-77
2023/07/20 07:42:17;;;;;;;16.60;6.10;;;;;;;-144.51;100.00;69251.94;4792485;29;20047;-76
2023/07/20 07:46:07;;;;;;;24.55;6.13;;;;;;;-144.51;100.00;69251.94;4764124;30;20044;-81
2023/07/20 07:50:00;;;;;;;20.70;6.53;;;;;;;-144.51;100.00;69251.94;4753312;30;20052;-76
2023/07/20 07:53:53;;;;;;;29.42;6.38;;;;;;;-144.51;100.00;69251.94;4765148;30;20039;-83
2023/07/20 07:57:44;;;;;;;11.35;4.55;;;;;;;-144.51;100.00;69251.94;4772363;30;20047;-83
2023/07/20 08:01:37;;;;;;;8.98;4.57;;;;;;;-144.51;100.00;69251.94;4778447;30;20255;-85
2023/07/20 08:05:30;;;;;;;17.02;4.53;;;;;;;-144.51;100.00;69251.94;4770012;30;20044;-84
2023/07/20 08:09:20;;;;;;;8.55;4.40;;;;;;;-144.51;100.00;69251.94;4790225;29;20494;-83
2023/07/20 08:13:13;;;;;;;8.45;3.60;;;;;;;-144.51;100.00;69251.94;4788765;29;20052;-83
2023/07/20 08:17:06;;;;;;;9.70;3.83;;;;;;;-144.51;100.00;69251.94;4786093;29;20048;-83
2023/07/20 08:21:04;;;;;;;8.95;3.55;;;;;;;-144.51;100.00;69251.94;4765409;30;20044;-85
2023/07/20 08:24:55;;;;;;;8.45;3.47;;;;;;;-144.51;100.00;69251.94;4776112;30;20035;-83
2023/07/20 08:28:48;;;;;;;9.20;3.65;;;;;;;-144.51;100.00;69251.94;4785442;29;20051;-84
2023/07/20 08:32:40;;;;;;;6.38;3.50;;;;;;;-144.51;100.00;69251.94;4784396;30;20052;-84
2023/07/20 08:36:28;;;;;;;103.30;22.88;;;;;;;-144.51;100.00;69251.94;4758423;30;20052;-82
2023/07/20 08:40:21;;;;;;;111.47;24.13;;;;;;;-144.51;100.00;69251.94;4788862;29;20047;-83
2023/07/20 08:44:15;;;;;;;115.57;31.13;;;;;;;-144.51;100.00;69251.94;4761557;29;20043;-85
2023/07/20 08:48:09;;;;;;;30.42;9.75;;;;;;;-144.51;100.00;69251.94;4801839;29;20047;-84
2023/07/20 08:52:01;;;;;;;33.53;8.68;;;;;;;-144.51;100.00;69251.94;4777790;30;20047;-82
2023/07/20 08:55:55;;;;;;;51.10;14.10;;;;;;;-144.51;100.00;69251.94;4785002;29;20048;-83
2023/07/20 08:59:49;;;;;;;66.03;15.88;;;;;;;-144.51;100.00;69251.94;4770465;30;20047;-83
2023/07/20 09:03:43;;;;;;;54.70;14.07;;;;;;;-144.51;100.00;69251.94;4787076;29;20048;-81
2023/07/20 09:07:35;;;;;;;42.40;11.48;;;;;;;-144.51;100.00;69251.94;4781822;30;20044;-82
2023/07/20 09:11:28;;;;;;;27.30;8.27;;;;;;;-144.51;100.00;69251.94;4782148;30;20043;-84
2023/07/20 09:15:21;;;;;;;69.38;18.13;;;;;;;-144.51;100.00;69251.94;4783172;30;20048;-80
2023/07/20 09:19:15;;;;;;;146.48;36.13;;;;;;;-144.51;100.00;69251.94;4784064;30;20514;-82
2023/07/20 09:23:08;;;;;;;77.80;20.48;;;;;;;-144.51;100.00;69251.94;4788422;30;20429;-83
2023/07/20 09:27:03;;;;;;;25.55;7.88;;;;;;;-144.51;100.00;69251.94;4783948;29;20533;-86
2023/07/20 09:30:56;;;;;;;11.98;4.10;;;;;;;-144.51;100.00;69251.94;4778447;30;20048;-87
2023/07/20 09:34:51;;;;;;;5.80;3.03;;;;;;;-144.51;100.00;69251.94;4789294;30;20043;-86
2023/07/20 09:38:44;;;;;;;15.43;6.28;;;;;;;-144.51;100.00;69251.94;4774272;30;20579;-85
2023/07/20 09:42:43;;;;;;;21.48;7.47;;;;;;;-144.51;100.00;69251.94;4782078;30;20043;-87
2023/07/20 09:46:45;;;;;;;12.35;4.97;;;;;;;-144.51;100.00;69251.94;4757939;30;20047;-86
2023/07/20 09:50:51;;;;;;;22.25;8.00;;;;;;;-144.51;100.00;69251.94;4781462;30;20055;-84
2023/07/20 09:54:44;;;;;;;19.23;7.30;;;;;;;-144.51;100.00;69251.94;4787106;30;20518;-86
2023/07/20 09:58:34;;;;;;;14.82;5.47;;;;;;;-144.51;100.00;69251.94;4778613;30;20040;-85
2023/07/20 10:02:27;;;;;;;15.13;6.60;;;;;;;-144.51;100.00;69251.94;4766070;30;20051;-84
2023/07/20 10:06:21;;;;;;;19.65;7.57;;;;;;;-144.51;100.00;69251.94;4787886;29;20040;-87
2023/07/20 10:10:14;;;;;;;13.05;4.68;;;;;;;-144.51;100.00;69251.94;4765843;30;20497;-87
2023/07/20 10:14:08;;;;;;;5.80;3.40;;;;;;;-144.51;100.00;69251.94;4790017;29;20048;-86
2023/07/20 10:18:05;;;;;;;10.02;5.15;;;;;;;-144.51;100.00;69251.94;4764864;30;20048;-86
2023/07/20 10:22:08;;;;;;;7.45;3.97;;;;;;;-144.51;100.00;69251.94;4767224;30;20044;-85
2023/07/20 10:26:02;;;;;;;10.55;3.90;;;;;;;-144.51;100.00;69251.94;4783775;30;20043;-87
2023/07/20 10:30:01;;;;;;;12.05;4.53;;;;;;;-144.51;100.00;69251.94;4783372;29;20040;-85
2023/07/20 10:33:54;;;;;;;18.70;5.30;;;;;;;-144.51;100.00;69251.94;4790977;30;20498;-87
2023/07/20 10:37:49;;;;;;;8.65;3.65;;;;;;;-144.51;100.00;69251.94;4796952;29;20039;-86
2023/07/20 10:41:45;;;;;;;8.63;4.10;;;;;;;-144.51;100.00;69251.94;4795528;29;20055;-86
2023/07/20 10:45:43;;;;;;;;;;;;;;;-144.51;100.00;69251.94;4782343;29;20047;-86
2023/07/20 10:49:34;;;;;;;7.20;3.80;;;;;;;-144.51;100.00;69251.94;4781760;29;20398;-84
2023/07/20 10:53:25;;;;;;;7.20;3.50;;;;;;;-144.51;100.00;69251.94;4775613;30;20522;-86
2023/07/20 10:57:27;;;;;;;14.93;5.05;;;;;;;-144.51;100.00;69251.94;4766390;30;20051;-84
2023/07/20 11:01:22;;;;;;;10.93;5.13;;;;;;;-144.51;100.00;69251.94;4767085;30;20048;-86
2023/07/20 11:05:31;;;;;;;25.13;9.98;;;;;;;-144.51;100.00;69251.94;4766047;30;20040;-86
2023/07/20 11:09:41;;;;;;;12.68;4.45;;;;;;;-144.51;100.00;69251.94;4775964;29;20040;-85
2023/07/20 11:13:34;;;;;;;9.50;3.67;;;;;;;-144.51;100.00;69251.94;4760924;30;20437;-85
2023/07/20 11:17:35;;;;;;;13.05;3.63;;;;;;;-144.51;100.00;69251.94;4765494;30;20438;-83
2023/07/20 11:21:23;;;;;;;13.55;4.45;;;;;;;-144.51;100.00;69251.94;4758970;30;20438;-86
2023/07/20 11:25:16;;;;;;;7.65;4.40;;;;;;;-144.51;100.00;69251.94;4806819;29;20047;-85
2023/07/20 11:29:13;;;;;;;8.18;3.58;;;;;;;-144.51;100.00;69251.94;4782797;29;20421;-86
2023/07/20 11:33:04;;;;;;;7.88;3.42;;;;;;;-144.51;100.00;69251.94;4795777;29;20043;-87
2023/07/20 11:36:57;;;;;;;6.65;3.88;;;;;;;-144.51;100.00;69251.94;4778506;30;20044;-84
2023/07/20 11:40:50;;;;;;;6.50;3.28;;;;;;;-144.51;100.00;69251.94;4789249;30;20043;-85
2023/07/20 11:44:39;;;;;;;7.70;4.00;;;;;;;-144.51;100.00;69251.94;4782059;29;20039;-87
2023/07/20 11:48:32;;;;;;;10.13;4.40;;;;;;;-144.51;100.00;69251.94;4771803;30;20047;-86
2023/07/20 11:52:22;;;;;;;11.98;3.72;;;;;;;-144.51;100.00;69251.94;4776901;30;20075;-85
2023/07/20 11:56:13;;;;;;;6.55;3.30;;;;;;;-144.51;100.00;69251.94;4776225;30;20052;-87
2023/07/20 12:00:10;;;;;;;5.85;3.22;;;;;;;-144.51;100.00;69251.94;4765865;30;20118;-88
2023/07/20 12:03:59;;;;;;;6.40;2.83;;;;;;;-144.51;100.00;69251.94;4785696;29;20036;-87
2023/07/20 12:07:53;;;;;;;8.18;3.03;;;;;;;-144.51;100.00;69251.94;4770553;30;20047;-87
2023/07/20 12:11:47;;;;;;;10.50;3.92;;;;;;;-144.51;100.00;69251.94;4794747;29;20044;-86
2023/07/20 12:15:37;;;;;;;4.15;2.70;;;;;;;-144.51;100.00;69251.94;4788735;29;20048;-87
2023/07/20 12:19:40;;;;;;;6.30;2.85;;;;;;;-144.51;100.00;69251.94;4781919;30;20051;-86
2023/07/20 12:23:36;;;;;;;13.65;4.38;;;;;;;-144.51;100.00;69251.94;4769276;30;20047;-87
2023/07/20 12:27:32;;;;;;;9.30;3.30;;;;;;;-144.51;100.00;69251.94;4787843;29;20043;-89
2023/07/20 12:31:23;;;;;;;5.18;2.72;;;;;;;-144.51;100.00;69251.94;4787763;29;20048;-86
2023/07/20 12:35:13;;;;;;;4.43;2.80;;;;;;;-144.51;100.00;69251.94;4775135;30;20048;-88
2023/07/20 12:39:04;;;;;;;6.78;3.10;;;;;;;-144.51;100.00;69251.94;4782974;29;20052;-84
2023/07/20 12:42:54;;;;;;;6.18;3.28;;;;;;;-144.51;100.00;69251.94;4781803;30;20047;-86
2023/07/20 12:46:47;;;;;;;6.65;2.90;;;;;;;-144.51;100.00;69251.94;4763141;30;20047;-86
2023/07/20 12:50:38;;;;;;;9.40;3.63;;;;;;;-144.51;100.00;69251.94;4796208;29;20048;-86
2023/07/20 12:54:30;;;;;;;5.10;2.95;;;;;;;-144.51;100.00;69251.94;4794141;29;20056;-85
2023/07/20 12:58:24;;;;;;;5.00;2.83;;;;;;;-144.51;100.00;69251.94;4796748;29;20044;-86
2023/07/20 13:02:12;;;;;;;9.90;3.30;;;;;;;-144.51;100.00;69251.94;4763270;30;20048;-86
2023/07/20 13:06:04;;;;;;;8.02;3.92;;;;;;;-144.51;100.00;69251.94;4793042;29;20036;-87
2023/07/20 13:09:57;;;;;;;7.07;3.08;;;;;;;-144.51;100.00;69251.94;4792946;30;20051;-87
2023/07/20 13:13:45;;;;;;;7.03;3.10;;;;;;;-144.51;100.00;69251.94;4795455;30;20047;-86
2023/07/20 13:17:40;;;;;;;7.32;3.30;;;;;;;-144.51;100.00;69251.94;4790846;30;20051;-86
2023/07/20 13:21:30;;;;;;;5.97;3.20;;;;;;;-144.51;100.00;69251.94;4787819;29;20067;-86
2023/07/20 13:25:23;;;;;;;8.68;3.35;;;;;;;-144.51;100.00;69251.94;4789395;30;20051;-86
2023/07/20 13:29:13;;;;;;;10.55;3.33;;;;;;;-144.51;100.00;69251.94;4771544;30;20043;-86
2023/07/20 13:33:06;;;;;;;12.50;3.50;;;;;;;-144.51;100.00;69251.94;4782459;30;20055;-87
2023/07/20 13:36:54;;;;;;;8.90;3.33;;;;;;;-144.51;100.00;69251.94;4789110;29;20052;-86
2023/07/20 13:40:47;;;;;;;6.15;3.15;;;;;;;-144.51;100.00;69251.94;4787475;29;20047;-89
2023/07/20 13:44:38;;;;;;;6.32;2.78;;;;;;;-144.51;100.00;69251.94;4770552;30;20036;-91
2023/07/20 13:48:29;;;;;;;8.07;3.20;;;;;;;-144.51;100.00;69251.94;4783045;30;20047;-89
2023/07/20 13:52:22;;;;;;;7.32;2.88;;;;;;;-144.51;100.00;69251.94;4784353;29;20052;-89
2023/07/20 13:56:10;;;;;;;6.03;3.22;;;;;;;-144.51;100.00;69251.94;4779600;30;20043;-91
2023/07/20 14:00:00;;;;;;;7.93;3.58;;;;;;;-144.51;100.00;69251.94;4786177;29;20047;-89
2023/07/20 14:03:51;;;;;;;8.68;4.13;;;;;;;-144.51;100.00;69251.94;4793304;29;20417;-90
2023/07/20 14:07:39;;;;;;;14.57;3.95;;;;;;;-144.51;100.00;69251.94;4788307;29;20044;-89
2023/07/20 14:11:30;;;;;;;10.63;3.30;;;;;;;-144.51;100.00;69251.94;4779099;29;20047;-89
2023/07/20 14:15:20;;;;;;;8.60;3.47;;;;;;;-144.51;100.00;69251.94;4814465;29;20039;-86
2023/07/20 14:19:09;;;;;;;6.50;3.50;;;;;;;-144.51;100.00;69251.94;4800228;29;20054;-90
2023/07/20 14:23:01;;;;;;;13.85;4.15;;;;;;;-144.51;100.00;69251.94;4806655;29;20047;-87
2023/07/20 14:26:54;;;;;;;6.90;3.28;;;;;;;-144.51;100.00;69251.94;4805385;29;20047;-89
2023/07/20 14:30:47;;;;;;;4.63;2.85;;;;;;;-144.51;100.00;69251.94;4824040;29;20047;-88
2023/07/20 14:34:35;;;;;;;6.45;4.28;;;;;;;-144.51;100.00;69251.94;4796229;29;20051;-91
2023/07/20 14:38:24;;;;;;;8.02;3.83;;;;;;;-144.51;100.00;69251.94;4823441;29;20073;-90
2023/07/20 14:42:17;;;;;;;12.18;3.55;;;;;;;-144.51;100.00;69251.94;4785080;30;20056;-90
2023/07/20 14:46:10;;;;;;;8.77;3.28;;;;;;;-144.51;100.00;69251.94;4777552;30;20036;-90
2023/07/20 14:50:03;;;;;;;8.15;3.22;;;;;;;-144.51;100.00;69251.94;4774889;30;20052;-92
2023/07/20 14:53:55;;;;;;;8.55;3.95;;;;;;;-144.51;100.00;69251.94;4773888;30;20040;-89
2023/07/20 14:57:52;;;;;;;6.45;3.22;;;;;;;-144.51;100.00;69251.94;4771541;30;20040;-89
2023/07/20 15:01:45;;;;;;;5.70;3.40;;;;;;;-144.51;100.00;69251.94;4793599;29;20417;-90
2023/07/20 15:05:35;;;;;;;7.85;4.10;;;;;;;-144.51;100.00;69251.94;4787152;29;20043;-88
2023/07/20 15:09:28;;;;;;;8.88;4.03;;;;;;;-144.51;100.00;69251.94;4800491;29;20039;-88
2023/07/20 15:13:21;;;;;;;8.68;3.17;;;;;;;-144.51;100.00;69251.94;4766491;30;20052;-87
2023/07/20 15:17:12;;;;;;;7.68;3.15;;;;;;;-144.51;100.00;69251.94;4786580;29;20044;-87
2023/07/20 15:21:05;;;;;;;11.27;3.97;;;;;;;-144.51;100.00;69251.94;4778687;29;20502;-88
2023/07/20 15:25:01;;;;;;;7.43;3.50;;;;;;;-144.51;100.00;69251.94;4792074;29;20044;-89
2023/07/20 15:28:58;;;;;;;10.55;3.90;;;;;;;-144.51;100.00;69251.94;4769687;29;20051;-88
2023/07/20 15:32:51;;;;;;;9.15;3.03;;;;;;;-144.51;100.00;69251.94;4802983;29;20043;-86
2023/07/20 15:36:41;;;;;;;7.00;3.40;;;;;;;-144.51;100.00;69251.94;4782487;29;20047;-85
2023/07/20 15:40:32;;;;;;;8.07;3.70;;;;;;;-144.51;100.00;69251.94;4782381;29;20043;-86
2023/07/20 15:44:22;;;;;;;6.00;3.47;;;;;;;-144.51;100.00;69251.94;4778306;30;20051;-85
2023/07/20 15:48:10;;;;;;;10.57;4.57;;;;;;;-144.51;100.00;69251.94;4773715;30;20040;-87
2023/07/20 15:51:56;;;;;;;7.80;3.30;;;;;;;-144.51;100.00;69251.94;4776230;29;20498;-89
2023/07/20 15:55:55;;;;;;;7.72;3.45;;;;;;;-144.51;100.00;69251.94;4769886;30;20048;-87
2023/07/20 15:59:48;;;;;;;15.80;3.88;;;;;;;-144.51;100.00;69251.94;4776172;30;20047;-88
2023/07/20 16:03:41;;;;;;;7.65;3.60;;;;;;;-144.51;100.00;69251.94;4777006;29;20059;-89
2023/07/20 16:07:34;;;;;;;8.50;3.08;;;;;;;-144.51;100.00;69251.94;4776191;29;20047;-89
2023/07/20 16:11:27;;;;;;;10.95;2.88;;;;;;;-144.51;100.00;69251.94;4776760;29;20516;-89
2023/07/20 16:15:20;;;;;;;5.95;3.63;;;;;;;-144.51;100.00;69251.94;4769853;30;20051;-88
2023/07/20 16:19:09;;;;;;;13.85;3.28;;;;;;;-144.51;100.00;69251.94;4772285;29;20048;-87
2023/07/20 16:23:02;;;;;;;8.75;2.83;;;;;;;-144.51;100.00;69251.94;4768616;29;20048;-87
2023/07/20 16:26:55;;;;;;;7.85;3.17;;;;;;;-144.51;100.00;69251.94;4780160;29;20048;-86
2023/07/20 16:30:47;;;;;;;5.88;2.90;;;;;;;-144.51;100.00;69251.94;4787945;29;20048;-88
2023/07/20 16:34:38;;;;;;;7.68;2.55;;;;;;;-144.51;100.00;69251.94;4751386;29;20052;-86
2023/07/20 16:38:31;;;;;;;9.23;2.78;;;;;;;-144.51;100.00;69251.94;4774714;30;20055;-86
2023/07/20 16:42:24;;;;;;;6.25;2.63;;;;;;;-144.51;100.00;69251.94;4787595;29;20059;-87
2023/07/20 16:46:17;;;;;;;5.10;2.38;;;;;;;-144.51;100.00;69251.94;4770774;29;20494;-86
2023/07/20 16:50:11;;;;;;;16.75;3.10;;;;;;;-144.51;100.00;69251.94;4778405;29;20043;-86
2023/07/20 16:54:04;;;;;;;13.40;2.97;;;;;;;-144.51;100.00;69251.94;4785744;29;20043;-86
2023/07/20 16:57:57;;;;;;;8.70;2.50;;;;;;;-144.51;100.00;69251.94;4791228;29;20043;-86
2023/07/20 17:01:51;;;;;;;12.43;3.38;;;;;;;-144.51;100.00;69251.94;4767010;30;20043;-85
2023/07/20 17:05:47;;;;;;;8.38;2.33;;;;;;;-144.51;100.00;69251.94;4768457;30;20052;-84
2023/07/20 17:09:41;;;;;;;8.60;3.15;;;;;;;-144.51;100.00;69251.94;4754263;30;20048;-86
2023/07/20 17:13:33;;;;;;;9.40;3.30;;;;;;;-144.51;100.00;69251.94;4751195;30;20048;-84
2023/07/20 17:17:26;;;;;;;6.70;2.83;;;;;;;-144.51;100.00;69251.94;4763430;30;20410;-87
2023/07/20 17:21:19;;;;;;;12.98;3.65;;;;;;;-144.51;100.00;69251.94;4757489;30;20048;-84
2023/07/20 17:25:12;;;;;;;10.93;3.15;;;;;;;-144.51;100.00;69251.94;4768492;30;20056;-84
2023/07/20 17:29:02;;;;;;;5.45;2.90;;;;;;;-144.51;100.00;69251.94;4764800;30;20048;-87
2023/07/20 17:32:56;;;;;;;6.32;2.72;;;;;;;-144.51;100.00;69251.94;4770084;30;20044;-81
2023/07/20 17:36:49;;;;;;;7.68;3.00;;;;;;;-144.51;100.00;69251.94;4764995;30;20503;-85
2023/07/20 17:40:42;;;;;;;5.43;2.35;;;;;;;-144.51;100.00;69251.94;4769030;30;20056;-86
2023/07/20 17:44:32;;;;;;;7.32;2.72;;;;;;;-144.51;100.00;69251.94;4769768;30;20052;-87
2023/07/20 17:48:25;;;;;;;11.88;4.05;;;;;;;-144.51;100.00;69251.94;4763348;30;20048;-88
2023/07/20 17:52:17;;;;;;;5.68;2.90;;;;;;;-144.51;100.00;69251.94;4764437;30;20048;-87
2023/07/20 17:56:05;;;;;;;8.15;2.78;;;;;;;-144.51;100.00;69251.94;4775981;29;20054;-86
2023/07/20 17:59:54;;;;;;;6.30;2.80;;;;;;;-144.51;100.00;69251.94;4783840;29;20051;-88
2023/07/20 18:03:46;;;;;;;7.78;3.30;;;;;;;-144.51;100.00;69251.94;4793926;30;20052;-87
2023/07/20 18:07:40;;;;;;;7.63;2.97;;;;;;;-144.51;100.00;69251.94;4796161;30;20044;-87
2023/07/20 18:11:30;;;;;;;5.72;3.10;;;;;;;-144.51;100.00;69251.94;4779920;29;20043;-84
2023/07/20 18:15:21;;;;;;;6.95;3.30;;;;;;;-144.51;100.00;69251.94;4775989;29;20474;-86
2023/07/20 18:19:19;;;;;;;7.38;3.10;;;;;;;-144.51;100.00;69251.94;4772154;30;20518;-88
2023/07/20 18:23:12;;;;;;;7.20;3.15;;;;;;;-144.51;100.00;69251.94;4774017;30;20052;-85
2023/07/20 18:27:05;;;;;;;7.15;3.03;;;;;;;-144.51;100.00;69251.94;4762631;30;20047;-85
2023/07/20 18:30:58;;;;;;;3.50;2.53;;;;;;;-144.51;100.00;69251.94;4793844;29;20051;-86
2023/07/20 18:34:51;;;;;;;6.40;2.85;;;;;;;-144.51;100.00;69251.94;4807492;29;20043;-87
2023/07/20 18:38:44;;;;;;;5.53;2.40;;;;;;;-144.51;100.00;69251.94;4782577;29;20413;-87
2023/07/20 18:42:38;;;;;;;11.43;3.90;;;;;;;-144.51;100.00;69251.94;4807887;29;20409;-85
2023/07/20 18:46:31;;;;;;;4.53;2.42;;;;;;;-144.51;100.00;69251.94;4779022;29;20055;-86
2023/07/20 18:50:23;;;;;;;5.25;2.55;;;;;;;-144.51;100.00;69251.94;4807730;29;20043;-86
2023/07/20 18:54:16;;;;;;;8.90;3.22;;;;;;;-144.51;100.00;69251.94;4801264;29;20051;-85
2023/07/20 18:58:01;;;;;;;3.83;2.60;;;;;;;-144.51;100.00;69251.94;4795017;29;20043;-88
2023/07/20 19:01:54;;;;;;;4.63;2.97;;;;;;;-144.51;100.00;69251.94;4788721;29;20047;-83
2023/07/20 19:05:51;;;;;;;5.97;3.25;;;;;;;-144.51;100.00;69251.94;4805438;29;20513;-84
2023/07/20 19:09:41;;;;;;;4.55;2.47;;;;;;;-144.51;100.00;69251.94;4781813;29;20047;-86
2023/07/20 19:13:31;;;;;;;4.38;3.00;;;;;;;-144.51;100.00;69251.94;4801493;29;20040;-83
2023/07/20 19:17:24;;;;;;;5.53;3.13;;;;;;;-144.51;100.00;69251.94;4800835;29;20051;-89
2023/07/20 19:21:14;;;;;;;4.15;3.20;;;;;;;-144.51;100.00;69251.94;4807440;29;20047;-85
2023/07/20 19:25:04;;;;;;;5.05;2.63;;;;;;;-144.51;100.00;69251.94;4779831;30;20048;-83
2023/07/20 19:28:58;;;;;;;4.25;2.97;;;;;;;-144.51;100.00;69251.94;4771699;30;20036;-86
2023/07/20 19:32:49;;;;;;;12.63;4.47;;;;;;;-144.51;100.00;69251.94;4788198;29;20051;-81
2023/07/20 19:36:37;;;;;;;13.20;4.13;;;;;;;-144.51;100.00;69251.94;4756712;30;20047;-80
2023/07/20 19:40:29;;;;;;;15.57;4.90;;;;;;;-144.51;100.00;69251.94;4782937;29;20052;-84
2023/07/20 19:44:23;;;;;;;13.43;4.68;;;;;;;-144.51;100.00;69251.94;4758965;30;20039;-83
2023/07/20 19:48:16;;;;;;;16.10;5.28;;;;;;;-144.51;100.00;69251.94;4772324;30;20510;-83
2023/07/20 19:52:07;;;;;;;13.55;5.43;;;;;;;-144.51;100.00;69251.94;4760282;30;20055;-82
2023/07/20 19:56:02;;;;;;;11.18;4.82;;;;;;;-144.51;100.00;69251.94;4778671;30;20421;-87
2023/07/20 19:59:54;;;;;;;13.30;5.43;;;;;;;-144.51;100.00;69251.94;4787246;30;20048;-84
2023/07/20 20:03:12;;;;;;;19.98;5.82;;;;;;;26.11;73.63;100348.72;4774998;30;20052;-87
2023/07/20 20:06:07;;;;;;;16.38;5.18;;;;;;;28.09;63.29;100018.72;4787168;29;20059;-85
2023/07/20 20:09:01;;;;;;;13.15;6.35;;;;;;;28.01;63.65;100012.59;4786904;29;20609;-84
2023/07/20 20:11:56;;;;;;;13.18;5.78;;;;;;;27.98;63.70;100010.72;4792061;29;20524;-84
2023/07/20 20:14:46;;;;;;;13.75;6.13;;;;;;;28.12;63.14;100011.50;4760882;30;20062;-87
2023/07/20 20:17:40;;;;;;;8.30;5.88;;;;;;;27.97;63.21;100011.94;4789964;29;20054;-85
2023/07/20 20:20:35;;;;;;;12.75;6.85;;;;;;;27.99;63.23;100015.06;4791320;29;20055;-84
2023/07/20 20:23:28;;;;;;;13.60;5.97;;;;;;;27.88;63.65;100022.25;4771111;30;20047;-82
2023/07/20 20:26:22;;;;;;;13.43;6.05;;;;;;;27.86;63.54;100022.72;4783570;29;20078;-87
2023/07/20 20:29:15;;;;;;;10.52;6.28;;;;;;;27.91;63.60;100019.34;4776068;30;20047;-85
2023/07/20 20:32:09;;;;;;;11.88;5.78;;;;;;;27.91;63.87;100018.56;4791907;29;20062;-83
2023/07/20 20:35:01;;;;;;;7.50;5.18;;;;;;;27.91;63.98;100013.75;4774307;29;20051;-83
2023/07/20 20:37:53;;;;;;;;;;;;;;;27.86;64.83;100017.13;4779225;29;20051;-85
2023/07/20 20:40:47;;;;;;;17.20;6.50;;;;;;;27.86;64.66;100017.13;4786649;29;19921;-86
2023/07/20 20:43:42;;;;;;;7.78;4.97;;;;;;;27.90;64.60;100025.38;4787887;29;20070;-88
2023/07/20 20:46:34;;;;;;;;;;;;;;;27.92;64.91;100031.31;4787937;30;20046;-84
2023/07/20 20:49:29;;;;;;;8.82;5.30;;;;;;;27.89;64.71;100032.97;4804846;29;20379;-83
2023/07/20 20:52:21;;;;;;;;;;;;;;;27.87;65.38;100029.06;4784311;29;20051;-85
2023/07/20 20:55:15;;;;;;;14.10;5.43;;;;;;;27.84;65.83;100025.16;4769922;29;19918;-82
2023/07/20 20:58:10;;;;;;;12.80;5.13;;;;;;;27.84;65.34;100025.16;4766083;30;20429;-84
2023/07/20 21:01:07;;;;;;;12.10;6.15;;;;;;;27.87;65.17;100023.50;4771479;30;20066;-87
2023/07/20 21:04:03;;;;;;;12.52;5.53;;;;;;;27.81;64.61;100030.88;4783500;30;20410;-87
2023/07/20 21:06:55;;;;;;;10.03;5.50;;;;;;;27.86;63.91;100033.88;4792069;29;20703;-87
2023/07/20 21:09:50;;;;;;;11.15;5.75;;;;;;;27.89;64.37;100041.34;4783126;30;20050;-87
2023/07/20 21:12:45;;;;;;;14.00;5.88;;;;;;;27.88;64.55;100039.03;4798131;29;20421;-88
2023/07/20 21:15:40;;;;;;;9.60;5.68;;;;;;;27.82;64.97;100049.22;4759558;30;20065;-85
2023/07/20 21:18:34;;;;;;;14.18;5.70;;;;;;;27.76;66.09;100035.00;4778644;30;20421;-86
2023/07/20 21:21:26;;;;;;;;;;;;;;;27.74;66.87;100019.91;4793482;29;20054;-88
2023/07/20 21:24:21;;;;;;;12.25;6.30;;;;;;;27.71;66.59;100023.63;4785021;29;19917;-82
2023/07/20 21:27:13;;;;;;;;;;;;;;;27.74;66.28;100020.69;4779597;30;20047;-84
2023/07/20 21:30:07;;;;;;;12.65;5.63;;;;;;;27.71;66.25;100018.03;4793134;29;19921;-81
2023/07/20 21:32:59;;;;;;;10.77;5.63;;;;;;;27.68;66.54;100014.13;4780338;30;20399;-85
2023/07/20 21:35:52;;;;;;;9.32;5.05;;;;;;;27.64;66.29;100021.84;4773917;29;20055;-84
2023/07/20 21:38:48;;;;;;;10.65;5.22;;;;;;;27.60;66.03;100010.78;4772081;30;20054;-83
2023/07/20 21:41:43;;;;;;;10.15;5.55;;;;;;;27.53;66.48;99997.03;4780680;30;20062;-81
2023/07/20 21:44:35;;;;;;;;;;;;;;;27.57;65.82;100002.53;4784258;30;20050;-83
2023/07/20 21:47:29;;;;;;;15.43;5.47;;;;;;;27.58;65.79;100021.59;4774819;30;19918;-84
2023/07/20 21:50:21;;;;;;;;;;;;;;;27.64;65.86;100022.63;4787317;30;20051;-83
2023/07/20 21:53:15;;;;;;;18.60;5.68;;;;;;;27.66;65.56;100016.59;4771928;30;19918;-82
2023/07/20 21:56:10;;;;;;;11.57;5.30;;;;;;;27.62;65.10;100018.72;4774941;29;20042;-82
2023/07/20 21:59:05;;;;;;;12.95;4.57;;;;;;;27.63;65.14;100014.69;4773445;30;20055;-85
2023/07/20 22:01:59;;;;;;;9.82;5.25;;;;;;;27.85;63.09;100007.16;4791303;29;20051;-82
2023/07/20 22:04:49;;;;;;;11.90;5.10;;;;;;;27.16;65.20;100029.28;4798382;29;20521;-82
2023/07/20 22:08:40;;;;;;;11.30;4.38;;;;;;;-144.51;100.00;69251.94;4783724;30;20525;-81
2023/07/20 22:11:35;;;;;;;8.60;4.95;;;;;;;27.53;64.75;100001.88;4771408;30;20051;-82
2023/07/20 22:14:27;;;;;;;7.68;4.70;;;;;;;27.55;62.39;100019.72;4786280;29;21770;-84
2023/07/20 22:17:20;;;;;;;17.17;4.97;;;;;;;27.04;62.72;100049.59;4778061;30;20063;-82